Terminal Aerodrome Forecast
Issued by NWS Louisville, KY

Home | Current Version | Previous Version | Text Only | Print | Product List | Glossary On
Versions: 1 2 3 4 5 6 7 8 9 10 11 12 13 14 15 16 17 18
000
FTUS43 KLMK 230500
TAFBWG
TAF
KBWG 230521Z 2306/2406 VRB03KT P6SM SKC
     FM231000 00000KT 6SM BR SKC
      TEMPO 2310/2313 3SM BR
     FM231300 06004KT P6SM SCT250=

USA.gov is the U.S. government's official web portal to all federal, state and local government web resources and services.